Tuttle, Oklahoma
Current Conditions -  °F | °C
As of 11:55 PM on Friday 28 Nov 2014 (Local Time) from KRCE Reporting Station
Clear Clear  
Wind Chill: 55°   Ceiling: Unl
Heat Index: 55°   Visibility: NA
Dew Point: 45°   Wind: 22mph
Humidity: 67%   Direction: 200°SSW
Pressure: 29.8"   Gusts: 30mph
Location:  35.29°N, 97.81°W
Report Text: KRCE 290555Z AUTO 20019G26KT CLR 13/07 A2980 RMK AO2
Loading
Personal Weather Stations






























Interactive Weather Map New forecast layout! Learn more

10-Day Weather Forecast

Advertisements
Track Severe Weather on mobile